sensor_id;sensor_type;location;lat;lon;timestamp;P1;durP1;ratioP1;P2;durP2;ratioP2
18510;SDS011;9384;48.044;11.616;2022-07-06T00:01:34;2.23;;;2.13;;
18510;SDS011;9384;48.044;11.616;2022-07-06T00:04:01;4.43;;;2.33;;
18510;SDS011;9384;48.044;11.616;2022-07-06T00:06:29;2.70;;;2.23;;
18510;SDS011;9384;48.044;11.616;2022-07-06T00:08:56;1.80;;;1.80;;
18510;SDS011;9384;48.044;11.616;2022-07-06T00:11:23;2.43;;;2.23;;
18510;SDS011;9384;48.044;11.616;2022-07-06T00:13:52;2.20;;;2.10;;
18510;SDS011;9384;48.044;11.616;2022-07-06T00:16:21;2.57;;;2.47;;
18510;SDS011;9384;48.044;11.616;2022-07-06T00:18:48;3.30;;;2.53;;
18510;SDS011;9384;48.044;11.616;2022-07-06T00:21:16;2.70;;;2.50;;
18510;SDS011;9384;48.044;11.616;2022-07-06T00:23:43;2.53;;;2.43;;
18510;SDS011;9384;48.044;11.616;2022-07-06T00:26:10;2.50;;;2.40;;
18510;SDS011;9384;48.044;11.616;2022-07-06T00:28:38;2.30;;;2.20;;
18510;SDS011;9384;48.044;11.616;2022-07-06T00:31:06;3.97;;;2.40;;
18510;SDS011;9384;48.044;11.616;2022-07-06T00:33:33;4.80;;;2.43;;
18510;SDS011;9384;48.044;11.616;2022-07-06T00:36:01;6.63;;;2.30;;
18510;SDS011;9384;48.044;11.616;2022-07-06T00:38:28;2.10;;;2.10;;
18510;SDS011;9384;48.044;11.616;2022-07-06T00:40:55;2.40;;;2.30;;
18510;SDS011;9384;48.044;11.616;2022-07-06T00:43:22;3.77;;;2.30;;
18510;SDS011;9384;48.044;11.616;2022-07-06T00:45:50;2.47;;;2.27;;
18510;SDS011;9384;48.044;11.616;2022-07-06T00:48:18;3.60;;;2.33;;
18510;SDS011;9384;48.044;11.616;2022-07-06T00:50:45;2.50;;;2.40;;
18510;SDS011;9384;48.044;11.616;2022-07-06T00:53:12;2.50;;;2.40;;
18510;SDS011;9384;48.044;11.616;2022-07-06T00:55:40;2.27;;;2.17;;
18510;SDS011;9384;48.044;11.616;2022-07-06T00:58:07;2.50;;;2.30;;
18510;SDS011;9384;48.044;11.616;2022-07-06T01:00:35;5.60;;;2.30;;
18510;SDS011;9384;48.044;11.616;2022-07-06T01:03:03;3.47;;;2.30;;
18510;SDS011;9384;48.044;11.616;2022-07-06T01:05:32;2.80;;;2.57;;
18510;SDS011;9384;48.044;11.616;2022-07-06T01:07:59;2.50;;;2.40;;
18510;SDS011;9384;48.044;11.616;2022-07-06T01:10:26;2.93;;;2.40;;
18510;SDS011;9384;48.044;11.616;2022-07-06T01:12:54;2.43;;;2.33;;
18510;SDS011;9384;48.044;11.616;2022-07-06T01:15:22;3.07;;;2.70;;
18510;SDS011;9384;48.044;11.616;2022-07-06T01:17:49;2.53;;;2.33;;
18510;SDS011;9384;48.044;11.616;2022-07-06T01:20:18;2.17;;;2.13;;
18510;SDS011;9384;48.044;11.616;2022-07-06T01:22:46;2.53;;;2.43;;
18510;SDS011;9384;48.044;11.616;2022-07-06T01:25:13;2.73;;;2.27;;
18510;SDS011;9384;48.044;11.616;2022-07-06T01:27:41;2.10;;;2.00;;
18510;SDS011;9384;48.044;11.616;2022-07-06T01:30:09;2.33;;;2.27;;
18510;SDS011;9384;48.044;11.616;2022-07-06T01:32:37;2.40;;;2.30;;
18510;SDS011;9384;48.044;11.616;2022-07-06T01:35:04;2.67;;;2.30;;
18510;SDS011;9384;48.044;11.616;2022-07-06T01:37:33;2.67;;;2.50;;
18510;SDS011;9384;48.044;11.616;2022-07-06T01:40:01;3.73;;;2.00;;
18510;SDS011;9384;48.044;11.616;2022-07-06T01:42:28;5.43;;;2.77;;
18510;SDS011;9384;48.044;11.616;2022-07-06T01:44:56;2.03;;;1.93;;
18510;SDS011;9384;48.044;11.616;2022-07-06T01:47:23;2.03;;;2.00;;
18510;SDS011;9384;48.044;11.616;2022-07-06T01:49:50;2.33;;;2.13;;
18510;SDS011;9384;48.044;11.616;2022-07-06T01:52:17;3.70;;;2.40;;
18510;SDS011;9384;48.044;11.616;2022-07-06T01:54:46;2.50;;;2.10;;
18510;SDS011;9384;48.044;11.616;2022-07-06T01:57:13;4.60;;;2.10;;
18510;SDS011;9384;48.044;11.616;2022-07-06T01:59:40;4.27;;;1.90;;
18510;SDS011;9384;48.044;11.616;2022-07-06T02:02:08;4.53;;;2.23;;
18510;SDS011;9384;48.044;11.616;2022-07-06T02:04:36;3.80;;;2.20;;
18510;SDS011;9384;48.044;11.616;2022-07-06T02:07:03;2.67;;;2.43;;
18510;SDS011;9384;48.044;11.616;2022-07-06T02:09:30;2.20;;;2.00;;
18510;SDS011;9384;48.044;11.616;2022-07-06T02:11:59;6.07;;;2.10;;
18510;SDS011;9384;48.044;11.616;2022-07-06T02:14:26;3.30;;;2.10;;
18510;SDS011;9384;48.044;11.616;2022-07-06T02:16:53;2.10;;;2.00;;
18510;SDS011;9384;48.044;11.616;2022-07-06T02:19:20;2.13;;;2.13;;
18510;SDS011;9384;48.044;11.616;2022-07-06T02:21:47;2.17;;;1.97;;
18510;SDS011;9384;48.044;11.616;2022-07-06T02:24:15;2.40;;;2.23;;
18510;SDS011;9384;48.044;11.616;2022-07-06T02:26:42;2.10;;;2.00;;
18510;SDS011;9384;48.044;11.616;2022-07-06T02:29:10;2.87;;;1.77;;
18510;SDS011;9384;48.044;11.616;2022-07-06T02:31:38;2.07;;;1.93;;
18510;SDS011;9384;48.044;11.616;2022-07-06T02:34:05;2.30;;;2.20;;
18510;SDS011;9384;48.044;11.616;2022-07-06T02:36:32;2.50;;;2.40;;
18510;SDS011;9384;48.044;11.616;2022-07-06T02:38:59;2.37;;;2.10;;
18510;SDS011;9384;48.044;11.616;2022-07-06T02:41:26;2.90;;;1.90;;
18510;SDS011;9384;48.044;11.616;2022-07-06T02:43:53;1.87;;;1.87;;
18510;SDS011;9384;48.044;11.616;2022-07-06T02:46:22;3.17;;;2.17;;
18510;SDS011;9384;48.044;11.616;2022-07-06T02:48:49;2.90;;;1.90;;
18510;SDS011;9384;48.044;11.616;2022-07-06T02:51:16;4.40;;;1.93;;
18510;SDS011;9384;48.044;11.616;2022-07-06T02:53:44;2.33;;;2.23;;
18510;SDS011;9384;48.044;11.616;2022-07-06T02:56:11;2.57;;;2.23;;
18510;SDS011;9384;48.044;11.616;2022-07-06T02:58:38;2.00;;;2.00;;
18510;SDS011;9384;48.044;11.616;2022-07-06T03:01:06;3.10;;;1.90;;
18510;SDS011;9384;48.044;11.616;2022-07-06T03:03:34;2.00;;;2.00;;
18510;SDS011;9384;48.044;11.616;2022-07-06T03:06:01;2.87;;;2.17;;
18510;SDS011;9384;48.044;11.616;2022-07-06T03:08:29;3.20;;;2.40;;
18510;SDS011;9384;48.044;11.616;2022-07-06T03:10:56;2.27;;;2.10;;
18510;SDS011;9384;48.044;11.616;2022-07-06T03:13:23;2.77;;;2.10;;
18510;SDS011;9384;48.044;11.616;2022-07-06T03:15:50;3.23;;;2.17;;
18510;SDS011;9384;48.044;11.616;2022-07-06T03:18:18;2.20;;;2.20;;
18510;SDS011;9384;48.044;11.616;2022-07-06T03:20:46;6.33;;;2.10;;
18510;SDS011;9384;48.044;11.616;2022-07-06T03:23:13;2.67;;;2.50;;
18510;SDS011;9384;48.044;11.616;2022-07-06T03:25:41;2.23;;;2.17;;
18510;SDS011;9384;48.044;11.616;2022-07-06T03:28:08;2.37;;;2.10;;
18510;SDS011;9384;48.044;11.616;2022-07-06T03:30:35;2.03;;;1.93;;
18510;SDS011;9384;48.044;11.616;2022-07-06T03:33:02;3.60;;;2.27;;
18510;SDS011;9384;48.044;11.616;2022-07-06T03:35:29;2.23;;;2.13;;
18510;SDS011;9384;48.044;11.616;2022-07-06T03:37:58;3.03;;;2.40;;
18510;SDS011;9384;48.044;11.616;2022-07-06T03:40:25;2.80;;;2.40;;
18510;SDS011;9384;48.044;11.616;2022-07-06T03:42:52;2.20;;;2.10;;
18510;SDS011;9384;48.044;11.616;2022-07-06T03:45:20;2.30;;;2.20;;
18510;SDS011;9384;48.044;11.616;2022-07-06T03:47:47;2.87;;;2.27;;
18510;SDS011;9384;48.044;11.616;2022-07-06T03:50:14;2.50;;;2.30;;
18510;SDS011;9384;48.044;11.616;2022-07-06T03:52:41;2.70;;;2.50;;
18510;SDS011;9384;48.044;11.616;2022-07-06T03:55:10;2.20;;;2.10;;
18510;SDS011;9384;48.044;11.616;2022-07-06T03:57:37;2.80;;;2.20;;
18510;SDS011;9384;48.044;11.616;2022-07-06T04:00:06;3.93;;;2.53;;
18510;SDS011;9384;48.044;11.616;2022-07-06T04:02:34;2.50;;;2.30;;
18510;SDS011;9384;48.044;11.616;2022-07-06T04:05:01;5.50;;;2.60;;
18510;SDS011;9384;48.044;11.616;2022-07-06T04:07:28;4.87;;;2.70;;
18510;SDS011;9384;48.044;11.616;2022-07-06T04:09:55;1.90;;;1.77;;
18510;SDS011;9384;48.044;11.616;2022-07-06T04:12:24;2.40;;;2.30;;
18510;SDS011;9384;48.044;11.616;2022-07-06T04:14:51;4.03;;;2.57;;
18510;SDS011;9384;48.044;11.616;2022-07-06T04:17:18;6.37;;;2.97;;
18510;SDS011;9384;48.044;11.616;2022-07-06T04:20:03;7.67;;;3.67;;
18510;SDS011;9384;48.044;11.616;2022-07-06T04:22:31;3.17;;;2.87;;
18510;SDS011;9384;48.044;11.616;2022-07-06T04:24:58;6.10;;;3.80;;
18510;SDS011;9384;48.044;11.616;2022-07-06T04:27:26;2.93;;;2.70;;
18510;SDS011;9384;48.044;11.616;2022-07-06T04:29:53;3.60;;;2.80;;
18510;SDS011;9384;48.044;11.616;2022-07-06T04:32:21;3.93;;;3.33;;
18510;SDS011;9384;48.044;11.616;2022-07-06T04:34:48;5.50;;;3.03;;
18510;SDS011;9384;48.044;11.616;2022-07-06T04:37:15;3.30;;;3.10;;
18510;SDS011;9384;48.044;11.616;2022-07-06T04:39:42;3.97;;;2.87;;
18510;SDS011;9384;48.044;11.616;2022-07-06T04:42:10;3.87;;;3.10;;
18510;SDS011;9384;48.044;11.616;2022-07-06T04:44:38;5.23;;;3.37;;
18510;SDS011;9384;48.044;11.616;2022-07-06T04:47:06;5.53;;;3.47;;
18510;SDS011;9384;48.044;11.616;2022-07-06T04:49:33;5.57;;;2.80;;
18510;SDS011;9384;48.044;11.616;2022-07-06T04:52:00;2.60;;;2.50;;
18510;SDS011;9384;48.044;11.616;2022-07-06T04:54:27;6.23;;;2.53;;
18510;SDS011;9384;48.044;11.616;2022-07-06T04:56:54;2.00;;;2.00;;
18510;SDS011;9384;48.044;11.616;2022-07-06T04:59:22;2.00;;;1.90;;
18510;SDS011;9384;48.044;11.616;2022-07-06T05:01:50;2.03;;;2.03;;
18510;SDS011;9384;48.044;11.616;2022-07-06T05:04:17;2.33;;;2.23;;
18510;SDS011;9384;48.044;11.616;2022-07-06T05:06:45;8.90;;;2.10;;
18510;SDS011;9384;48.044;11.616;2022-07-06T05:09:12;5.83;;;1.97;;
18510;SDS011;9384;48.044;11.616;2022-07-06T05:11:39;4.47;;;2.10;;
18510;SDS011;9384;48.044;11.616;2022-07-06T05:14:07;2.10;;;2.00;;
18510;SDS011;9384;48.044;11.616;2022-07-06T05:16:34;2.27;;;2.17;;
18510;SDS011;9384;48.044;11.616;2022-07-06T05:19:03;3.10;;;2.07;;
18510;SDS011;9384;48.044;11.616;2022-07-06T05:21:30;1.80;;;1.70;;
18510;SDS011;9384;48.044;11.616;2022-07-06T05:23:57;1.80;;;1.80;;
18510;SDS011;9384;48.044;11.616;2022-07-06T05:26:25;1.83;;;1.80;;
18510;SDS011;9384;48.044;11.616;2022-07-06T05:28:52;2.03;;;1.93;;
18510;SDS011;9384;48.044;11.616;2022-07-06T05:31:19;2.53;;;1.83;;
18510;SDS011;9384;48.044;11.616;2022-07-06T05:33:46;2.70;;;1.93;;
18510;SDS011;9384;48.044;11.616;2022-07-06T05:36:15;1.73;;;1.73;;
18510;SDS011;9384;48.044;11.616;2022-07-06T05:38:43;3.63;;;1.77;;
18510;SDS011;9384;48.044;11.616;2022-07-06T05:41:10;3.90;;;1.90;;
18510;SDS011;9384;48.044;11.616;2022-07-06T05:43:37;1.80;;;1.80;;
18510;SDS011;9384;48.044;11.616;2022-07-06T05:46:04;3.23;;;1.80;;
18510;SDS011;9384;48.044;11.616;2022-07-06T05:48:32;1.93;;;1.90;;
18510;SDS011;9384;48.044;11.616;2022-07-06T05:51:18;1.90;;;1.80;;
18510;SDS011;9384;48.044;11.616;2022-07-06T05:53:45;1.87;;;1.77;;
18510;SDS011;9384;48.044;11.616;2022-07-06T05:56:12;2.17;;;1.93;;
18510;SDS011;9384;48.044;11.616;2022-07-06T05:58:40;1.60;;;1.60;;
18510;SDS011;9384;48.044;11.616;2022-07-06T06:01:07;1.73;;;1.63;;
18510;SDS011;9384;48.044;11.616;2022-07-06T06:03:35;1.60;;;1.60;;
18510;SDS011;9384;48.044;11.616;2022-07-06T06:06:02;1.70;;;1.60;;
18510;SDS011;9384;48.044;11.616;2022-07-06T06:08:31;1.87;;;1.87;;
18510;SDS011;9384;48.044;11.616;2022-07-06T06:10:58;1.60;;;1.50;;
18510;SDS011;9384;48.044;11.616;2022-07-06T06:13:25;1.50;;;1.50;;
18510;SDS011;9384;48.044;11.616;2022-07-06T06:15:52;1.83;;;1.73;;
18510;SDS011;9384;48.044;11.616;2022-07-06T06:18:19;1.73;;;1.70;;
18510;SDS011;9384;48.044;11.616;2022-07-06T06:20:47;1.50;;;1.50;;
18510;SDS011;9384;48.044;11.616;2022-07-06T06:23:14;2.53;;;2.00;;
18510;SDS011;9384;48.044;11.616;2022-07-06T06:25:42;2.30;;;2.00;;
18510;SDS011;9384;48.044;11.616;2022-07-06T06:28:10;2.97;;;1.60;;
18510;SDS011;9384;48.044;11.616;2022-07-06T06:30:37;1.60;;;1.60;;
18510;SDS011;9384;48.044;11.616;2022-07-06T06:33:08;1.83;;;1.70;;
18510;SDS011;9384;48.044;11.616;2022-07-06T06:35:36;4.20;;;1.80;;
18510;SDS011;9384;48.044;11.616;2022-07-06T06:38:03;1.80;;;1.70;;
18510;SDS011;9384;48.044;11.616;2022-07-06T06:40:30;1.40;;;1.40;;
18510;SDS011;9384;48.044;11.616;2022-07-06T06:42:59;3.03;;;1.57;;
18510;SDS011;9384;48.044;11.616;2022-07-06T06:45:26;1.70;;;1.70;;
18510;SDS011;9384;48.044;11.616;2022-07-06T06:47:53;1.80;;;1.70;;
18510;SDS011;9384;48.044;11.616;2022-07-06T06:50:21;1.50;;;1.50;;
18510;SDS011;9384;48.044;11.616;2022-07-06T06:52:49;2.53;;;1.53;;
18510;SDS011;9384;48.044;11.616;2022-07-06T06:55:16;2.27;;;2.07;;
18510;SDS011;9384;48.044;11.616;2022-07-06T06:57:43;4.07;;;1.70;;
18510;SDS011;9384;48.044;11.616;2022-07-06T07:00:12;1.77;;;1.67;;
18510;SDS011;9384;48.044;11.616;2022-07-06T07:02:40;1.87;;;1.70;;
18510;SDS011;9384;48.044;11.616;2022-07-06T07:05:07;2.03;;;1.90;;
18510;SDS011;9384;48.044;11.616;2022-07-06T07:07:34;1.80;;;1.50;;
18510;SDS011;9384;48.044;11.616;2022-07-06T07:10:02;2.10;;;2.00;;
18510;SDS011;9384;48.044;11.616;2022-07-06T07:12:30;2.43;;;1.80;;
18510;SDS011;9384;48.044;11.616;2022-07-06T07:14:58;4.23;;;1.80;;
18510;SDS011;9384;48.044;11.616;2022-07-06T07:17:26;1.43;;;1.43;;
18510;SDS011;9384;48.044;11.616;2022-07-06T07:19:53;2.10;;;1.77;;
18510;SDS011;9384;48.044;11.616;2022-07-06T07:22:22;2.07;;;1.70;;
18510;SDS011;9384;48.044;11.616;2022-07-06T07:24:49;3.80;;;1.80;;
18510;SDS011;9384;48.044;11.616;2022-07-06T07:27:16;1.90;;;1.77;;
18510;SDS011;9384;48.044;11.616;2022-07-06T07:29:43;5.23;;;2.00;;
18510;SDS011;9384;48.044;11.616;2022-07-06T07:32:11;2.47;;;1.50;;
18510;SDS011;9384;48.044;11.616;2022-07-06T07:34:39;1.90;;;1.40;;
18510;SDS011;9384;48.044;11.616;2022-07-06T07:37:06;2.10;;;1.87;;
18510;SDS011;9384;48.044;11.616;2022-07-06T07:39:33;3.47;;;1.73;;
18510;SDS011;9384;48.044;11.616;2022-07-06T07:42:01;1.73;;;1.73;;
18510;SDS011;9384;48.044;11.616;2022-07-06T07:44:28;1.57;;;1.47;;
18510;SDS011;9384;48.044;11.616;2022-07-06T07:46:55;7.33;;;1.97;;
18510;SDS011;9384;48.044;11.616;2022-07-06T07:49:22;1.90;;;1.80;;
18510;SDS011;9384;48.044;11.616;2022-07-06T07:51:51;2.37;;;2.27;;
18510;SDS011;9384;48.044;11.616;2022-07-06T07:54:18;2.03;;;1.87;;
18510;SDS011;9384;48.044;11.616;2022-07-06T07:56:45;2.27;;;2.17;;
18510;SDS011;9384;48.044;11.616;2022-07-06T07:59:12;1.73;;;1.63;;
18510;SDS011;9384;48.044;11.616;2022-07-06T08:01:39;1.83;;;1.73;;
18510;SDS011;9384;48.044;11.616;2022-07-06T08:04:06;3.30;;;1.90;;
18510;SDS011;9384;48.044;11.616;2022-07-06T08:06:34;4.47;;;1.60;;
18510;SDS011;9384;48.044;11.616;2022-07-06T08:09:02;3.03;;;1.90;;
18510;SDS011;9384;48.044;11.616;2022-07-06T08:11:32;3.77;;;1.87;;
18510;SDS011;9384;48.044;11.616;2022-07-06T08:13:59;2.60;;;2.13;;
18510;SDS011;9384;48.044;11.616;2022-07-06T08:16:27;2.30;;;1.93;;
18510;SDS011;9384;48.044;11.616;2022-07-06T08:18:54;2.00;;;1.90;;
18510;SDS011;9384;48.044;11.616;2022-07-06T08:21:21;1.90;;;1.77;;
18510;SDS011;9384;48.044;11.616;2022-07-06T08:23:48;2.10;;;2.00;;
18510;SDS011;9384;48.044;11.616;2022-07-06T08:26:17;2.37;;;2.27;;
18510;SDS011;9384;48.044;11.616;2022-07-06T08:28:44;2.23;;;2.03;;
18510;SDS011;9384;48.044;11.616;2022-07-06T08:31:11;1.90;;;1.80;;
18510;SDS011;9384;48.044;11.616;2022-07-06T08:33:38;2.30;;;1.90;;
18510;SDS011;9384;48.044;11.616;2022-07-06T08:36:06;2.20;;;1.97;;
18510;SDS011;9384;48.044;11.616;2022-07-06T08:38:33;1.97;;;1.87;;
18510;SDS011;9384;48.044;11.616;2022-07-06T08:41:00;2.70;;;1.73;;
18510;SDS011;9384;48.044;11.616;2022-07-06T08:43:28;2.40;;;2.00;;
18510;SDS011;9384;48.044;11.616;2022-07-06T08:45:56;4.60;;;1.97;;
18510;SDS011;9384;48.044;11.616;2022-07-06T08:48:23;1.97;;;1.87;;
18510;SDS011;9384;48.044;11.616;2022-07-06T08:50:51;1.80;;;1.67;;
18510;SDS011;9384;48.044;11.616;2022-07-06T08:53:19;2.27;;;2.00;;
18510;SDS011;9384;48.044;11.616;2022-07-06T08:55:47;3.27;;;1.90;;
18510;SDS011;9384;48.044;11.616;2022-07-06T08:58:14;8.93;;;1.80;;
18510;SDS011;9384;48.044;11.616;2022-07-06T09:00:43;1.83;;;1.70;;
18510;SDS011;9384;48.044;11.616;2022-07-06T09:03:11;1.83;;;1.70;;
18510;SDS011;9384;48.044;11.616;2022-07-06T09:05:39;2.27;;;2.07;;
18510;SDS011;9384;48.044;11.616;2022-07-06T09:08:07;2.13;;;1.93;;
18510;SDS011;9384;48.044;11.616;2022-07-06T09:10:34;1.70;;;1.70;;
18510;SDS011;9384;48.044;11.616;2022-07-06T09:13:02;2.07;;;1.97;;
18510;SDS011;9384;48.044;11.616;2022-07-06T09:15:30;3.47;;;2.00;;
18510;SDS011;9384;48.044;11.616;2022-07-06T09:17:58;2.37;;;2.13;;
18510;SDS011;9384;48.044;11.616;2022-07-06T09:20:26;2.67;;;1.90;;
18510;SDS011;9384;48.044;11.616;2022-07-06T09:22:56;2.13;;;2.00;;
18510;SDS011;9384;48.044;11.616;2022-07-06T09:25:24;2.23;;;2.03;;
18510;SDS011;9384;48.044;11.616;2022-07-06T09:27:52;1.77;;;1.77;;
18510;SDS011;9384;48.044;11.616;2022-07-06T09:30:20;2.13;;;2.03;;
18510;SDS011;9384;48.044;11.616;2022-07-06T09:32:48;5.40;;;1.73;;
18510;SDS011;9384;48.044;11.616;2022-07-06T09:35:20;3.10;;;2.13;;
18510;SDS011;9384;48.044;11.616;2022-07-06T09:37:51;5.07;;;2.17;;
18510;SDS011;9384;48.044;11.616;2022-07-06T09:40:26;1.93;;;1.90;;
18510;SDS011;9384;48.044;11.616;2022-07-06T09:43:06;2.23;;;2.10;;
18510;SDS011;9384;48.044;11.616;2022-07-06T09:45:33;1.93;;;1.70;;
18510;SDS011;9384;48.044;11.616;2022-07-06T09:48:05;2.20;;;2.10;;
18510;SDS011;9384;48.044;11.616;2022-07-06T09:50:39;2.57;;;2.00;;
18510;SDS011;9384;48.044;11.616;2022-07-06T09:53:07;2.63;;;2.00;;
18510;SDS011;9384;48.044;11.616;2022-07-06T09:55:34;3.57;;;1.90;;
18510;SDS011;9384;48.044;11.616;2022-07-06T09:58:02;2.00;;;1.90;;
18510;SDS011;9384;48.044;11.616;2022-07-06T10:00:30;4.70;;;1.80;;
18510;SDS011;9384;48.044;11.616;2022-07-06T10:02:57;1.90;;;1.80;;
18510;SDS011;9384;48.044;11.616;2022-07-06T10:05:24;2.10;;;2.00;;
18510;SDS011;9384;48.044;11.616;2022-07-06T10:07:57;2.20;;;2.10;;
18510;SDS011;9384;48.044;11.616;2022-07-06T10:10:25;1.97;;;1.80;;
18510;SDS011;9384;48.044;11.616;2022-07-06T10:12:52;3.30;;;1.83;;
18510;SDS011;9384;48.044;11.616;2022-07-06T10:15:21;3.47;;;2.20;;
18510;SDS011;9384;48.044;11.616;2022-07-06T10:17:49;2.90;;;2.33;;
18510;SDS011;9384;48.044;11.616;2022-07-06T10:20:17;2.17;;;1.87;;
18510;SDS011;9384;48.044;11.616;2022-07-06T10:22:45;4.73;;;1.87;;
18510;SDS011;9384;48.044;11.616;2022-07-06T10:25:15;2.73;;;1.97;;
18510;SDS011;9384;48.044;11.616;2022-07-06T10:27:43;2.43;;;2.23;;
18510;SDS011;9384;48.044;11.616;2022-07-06T10:30:10;2.33;;;2.13;;
18510;SDS011;9384;48.044;11.616;2022-07-06T10:32:38;4.33;;;2.40;;
18510;SDS011;9384;48.044;11.616;2022-07-06T10:35:06;2.97;;;2.40;;
18510;SDS011;9384;48.044;11.616;2022-07-06T10:37:34;2.40;;;2.30;;
18510;SDS011;9384;48.044;11.616;2022-07-06T10:40:01;5.10;;;2.27;;
18510;SDS011;9384;48.044;11.616;2022-07-06T10:42:48;2.90;;;2.07;;
18510;SDS011;9384;48.044;11.616;2022-07-06T10:45:20;1.93;;;1.87;;
18510;SDS011;9384;48.044;11.616;2022-07-06T10:47:48;3.33;;;1.90;;
18510;SDS011;9384;48.044;11.616;2022-07-06T10:50:35;3.90;;;2.33;;
18510;SDS011;9384;48.044;11.616;2022-07-06T10:53:02;2.20;;;2.10;;
18510;SDS011;9384;48.044;11.616;2022-07-06T10:55:37;1.67;;;1.67;;
18510;SDS011;9384;48.044;11.616;2022-07-06T10:58:05;2.37;;;1.73;;
18510;SDS011;9384;48.044;11.616;2022-07-06T11:00:42;1.90;;;1.80;;
18510;SDS011;9384;48.044;11.616;2022-07-06T11:03:30;2.07;;;1.60;;
18510;SDS011;9384;48.044;11.616;2022-07-06T11:05:58;2.10;;;2.00;;
18510;SDS011;9384;48.044;11.616;2022-07-06T11:08:40;3.03;;;1.90;;
18510;SDS011;9384;48.044;11.616;2022-07-06T11:11:11;2.00;;;1.90;;
18510;SDS011;9384;48.044;11.616;2022-07-06T11:13:46;1.80;;;1.40;;
18510;SDS011;9384;48.044;11.616;2022-07-06T11:16:14;4.60;;;1.87;;
18510;SDS011;9384;48.044;11.616;2022-07-06T11:18:42;1.80;;;1.70;;
18510;SDS011;9384;48.044;11.616;2022-07-06T11:21:20;1.57;;;1.33;;
18510;SDS011;9384;48.044;11.616;2022-07-06T11:23:48;3.30;;;1.70;;
18510;SDS011;9384;48.044;11.616;2022-07-06T11:26:16;2.50;;;1.70;;
18510;SDS011;9384;48.044;11.616;2022-07-06T11:28:45;4.43;;;1.73;;
18510;SDS011;9384;48.044;11.616;2022-07-06T11:31:16;1.90;;;1.80;;
18510;SDS011;9384;48.044;11.616;2022-07-06T11:33:44;5.53;;;2.13;;
18510;SDS011;9384;48.044;11.616;2022-07-06T11:36:12;2.10;;;2.00;;
18510;SDS011;9384;48.044;11.616;2022-07-06T11:38:40;2.40;;;1.88;;
18510;SDS011;9384;48.044;11.616;2022-07-06T11:41:07;5.47;;;2.10;;
18510;SDS011;9384;48.044;11.616;2022-07-06T11:43:34;3.87;;;2.30;;
18510;SDS011;9384;48.044;11.616;2022-07-06T11:46:04;2.93;;;2.27;;
18510;SDS011;9384;48.044;11.616;2022-07-06T11:48:31;4.45;;;2.00;;
18510;SDS011;9384;48.044;11.616;2022-07-06T11:50:58;2.57;;;1.90;;
18510;SDS011;9384;48.044;11.616;2022-07-06T11:53:26;2.45;;;1.63;;
18510;SDS011;9384;48.044;11.616;2022-07-06T11:55:53;2.20;;;1.48;;
18510;SDS011;9384;48.044;11.616;2022-07-06T11:58:21;5.55;;;1.90;;
18510;SDS011;9384;48.044;11.616;2022-07-06T12:03:35;1.88;;;1.77;;
18510;SDS011;9384;48.044;11.616;2022-07-06T12:06:02;3.08;;;1.88;;
18510;SDS011;9384;48.044;11.616;2022-07-06T12:08:30;1.80;;;1.67;;
18510;SDS011;9384;48.044;11.616;2022-07-06T12:10:58;1.92;;;1.80;;
18510;SDS011;9384;48.044;11.616;2022-07-06T12:13:26;1.95;;;1.67;;
18510;SDS011;9384;48.044;11.616;2022-07-06T12:15:53;2.28;;;1.83;;
18510;SDS011;9384;48.044;11.616;2022-07-06T12:18:20;1.58;;;1.52;;
18510;SDS011;9384;48.044;11.616;2022-07-06T12:21:03;3.00;;;1.90;;
18510;SDS011;9384;48.044;11.616;2022-07-06T12:23:37;1.92;;;1.83;;
18510;SDS011;9384;48.044;11.616;2022-07-06T12:26:05;1.70;;;1.60;;
18510;SDS011;9384;48.044;11.616;2022-07-06T12:28:32;3.47;;;1.88;;
18510;SDS011;9384;48.044;11.616;2022-07-06T12:30:59;1.92;;;1.80;;
18510;SDS011;9384;48.044;11.616;2022-07-06T12:33:27;2.97;;;1.92;;
18510;SDS011;9384;48.044;11.616;2022-07-06T12:35:54;2.03;;;1.88;;
18510;SDS011;9384;48.044;11.616;2022-07-06T12:38:23;1.77;;;1.75;;
18510;SDS011;9384;48.044;11.616;2022-07-06T12:40:50;2.15;;;2.05;;
18510;SDS011;9384;48.044;11.616;2022-07-06T12:45:59;1.80;;;1.70;;
18510;SDS011;9384;48.044;11.616;2022-07-06T12:48:27;1.90;;;1.80;;
18510;SDS011;9384;48.044;11.616;2022-07-06T12:50:56;1.58;;;1.58;;
18510;SDS011;9384;48.044;11.616;2022-07-06T12:53:25;1.95;;;1.63;;
18510;SDS011;9384;48.044;11.616;2022-07-06T12:56:07;2.53;;;1.88;;
18510;SDS011;9384;48.044;11.616;2022-07-06T12:58:34;1.50;;;1.50;;
18510;SDS011;9384;48.044;11.616;2022-07-06T13:01:01;1.85;;;1.60;;
18510;SDS011;9384;48.044;11.616;2022-07-06T13:03:37;1.77;;;1.73;;
18510;SDS011;9384;48.044;11.616;2022-07-06T13:06:05;3.00;;;1.85;;
18510;SDS011;9384;48.044;11.616;2022-07-06T13:08:33;1.70;;;1.60;;
18510;SDS011;9384;48.044;11.616;2022-07-06T13:11:01;2.20;;;1.60;;
18510;SDS011;9384;48.044;11.616;2022-07-06T13:13:29;1.98;;;1.83;;
18510;SDS011;9384;48.044;11.616;2022-07-06T13:15:56;1.50;;;1.50;;
18510;SDS011;9384;48.044;11.616;2022-07-06T13:18:23;1.45;;;1.38;;
18510;SDS011;9384;48.044;11.616;2022-07-06T13:20:50;3.80;;;1.50;;
18510;SDS011;9384;48.044;11.616;2022-07-06T13:23:18;1.85;;;1.50;;
18510;SDS011;9384;48.044;11.616;2022-07-06T13:25:46;3.63;;;1.85;;
18510;SDS011;9384;48.044;11.616;2022-07-06T13:28:13;4.15;;;1.55;;
18510;SDS011;9384;48.044;11.616;2022-07-06T13:30:41;1.52;;;1.52;;
18510;SDS011;9384;48.044;11.616;2022-07-06T13:33:08;3.75;;;1.63;;
18510;SDS011;9384;48.044;11.616;2022-07-06T13:35:35;1.70;;;1.60;;
18510;SDS011;9384;48.044;11.616;2022-07-06T13:38:02;1.50;;;1.50;;
18510;SDS011;9384;48.044;11.616;2022-07-06T13:40:30;1.80;;;1.70;;
18510;SDS011;9384;48.044;11.616;2022-07-06T13:43:01;3.53;;;1.70;;
18510;SDS011;9384;48.044;11.616;2022-07-06T13:45:28;2.20;;;1.80;;
18510;SDS011;9384;48.044;11.616;2022-07-06T13:47:55;2.53;;;1.90;;
18510;SDS011;9384;48.044;11.616;2022-07-06T13:50:23;1.75;;;1.70;;
18510;SDS011;9384;48.044;11.616;2022-07-06T13:52:52;3.33;;;1.63;;
18510;SDS011;9384;48.044;11.616;2022-07-06T13:55:20;2.05;;;1.52;;
18510;SDS011;9384;48.044;11.616;2022-07-06T13:57:47;2.13;;;1.63;;
18510;SDS011;9384;48.044;11.616;2022-07-06T14:00:16;3.40;;;1.90;;
18510;SDS011;9384;48.044;11.616;2022-07-06T14:02:43;1.90;;;1.80;;
18510;SDS011;9384;48.044;11.616;2022-07-06T14:05:11;1.80;;;1.70;;
18510;SDS011;9384;48.044;11.616;2022-07-06T14:07:38;2.35;;;1.60;;
18510;SDS011;9384;48.044;11.616;2022-07-06T14:10:05;1.55;;;1.55;;
18510;SDS011;9384;48.044;11.616;2022-07-06T14:12:32;2.88;;;1.58;;
18510;SDS011;9384;48.044;11.616;2022-07-06T14:14:59;4.32;;;1.80;;
18510;SDS011;9384;48.044;11.616;2022-07-06T14:17:28;3.25;;;1.70;;
18510;SDS011;9384;48.044;11.616;2022-07-06T14:19:55;3.10;;;1.58;;
18510;SDS011;9384;48.044;11.616;2022-07-06T14:22:22;1.70;;;1.67;;
18510;SDS011;9384;48.044;11.616;2022-07-06T14:24:49;1.55;;;1.55;;
18510;SDS011;9384;48.044;11.616;2022-07-06T14:27:17;2.83;;;1.70;;
18510;SDS011;9384;48.044;11.616;2022-07-06T14:29:44;2.40;;;1.70;;
18510;SDS011;9384;48.044;11.616;2022-07-06T14:32:11;3.22;;;1.70;;
18510;SDS011;9384;48.044;11.616;2022-07-06T14:34:39;1.95;;;1.80;;
18510;SDS011;9384;48.044;11.616;2022-07-06T14:37:07;1.60;;;1.50;;
18510;SDS011;9384;48.044;11.616;2022-07-06T14:39:34;1.80;;;1.70;;
18510;SDS011;9384;48.044;11.616;2022-07-06T14:42:01;1.70;;;1.63;;
18510;SDS011;9384;48.044;11.616;2022-07-06T14:44:28;3.00;;;1.70;;
18510;SDS011;9384;48.044;11.616;2022-07-06T14:46:56;2.83;;;1.73;;
18510;SDS011;9384;48.044;11.616;2022-07-06T14:49:23;1.65;;;1.55;;
18510;SDS011;9384;48.044;11.616;2022-07-06T14:51:51;2.13;;;1.73;;
18510;SDS011;9384;48.044;11.616;2022-07-06T14:54:18;1.45;;;1.35;;
18510;SDS011;9384;48.044;11.616;2022-07-06T14:56:46;1.48;;;1.48;;
18510;SDS011;9384;48.044;11.616;2022-07-06T14:59:13;1.20;;;1.20;;